Time;durP1;ratioP1;P1;durP2;ratioP2;P2;SDS_P1;SDS_P2;PMS_P1;PMS_P2;Temp;Humidity;BMP_temperature;BMP_pressure;BME280_temperature;BME280_humidity;BME280_pressure;Samples;Min_cycle;Max_cycle;Signal;HPM_P1;HPM_P2
2024/02/25 00:01:03;;;;;;;1.57;1.40;;;4.50;99.90;;;;;;4959948;28;20290;-55
2024/02/25 00:03:29;;;;;;;2.03;1.20;;;4.40;99.90;;;;;;4963672;28;20202;-54
2024/02/25 00:05:56;;;;;;;1.20;1.10;;;4.40;99.90;;;;;;4933754;28;20230;-57
2024/02/25 00:08:24;;;;;;;2.73;1.40;;;4.40;99.90;;;;;;4963224;28;20226;-50
2024/02/25 00:10:52;;;;;;;1.10;1.00;;;4.30;99.90;;;;;;4950179;28;20280;-52
2024/02/25 00:13:19;;;;;;;2.83;1.10;;;4.30;99.90;;;;;;4960215;28;20218;-48
2024/02/25 00:15:46;;;;;;;1.70;1.47;;;4.30;99.90;;;;;;4961632;28;20222;-51
2024/02/25 00:18:13;;;;;;;1.53;1.27;;;4.20;99.90;;;;;;4961081;28;20822;-53
2024/02/25 00:20:40;;;;;;;1.30;1.20;;;4.20;99.90;;;;;;4937447;28;20214;-57
2024/02/25 00:23:06;;;;;;;2.73;1.30;;;4.10;99.90;;;;;;4959446;28;20210;-54
2024/02/25 00:25:36;;;;;;;1.30;1.20;;;4.10;99.90;;;;;;4962400;28;20210;-54
2024/02/25 00:28:03;;;;;;;0.90;0.90;;;4.10;99.90;;;;;;4948600;28;20252;-54
2024/02/25 00:30:30;;;;;;;1.17;1.10;;;4.00;99.90;;;;;;4963146;28;20257;-51
2024/02/25 00:32:57;;;;;;;1.67;1.03;;;4.00;99.90;;;;;;4959532;28;20221;-54
2024/02/25 00:35:24;;;;;;;1.53;1.40;;;4.00;99.90;;;;;;4936670;28;20772;-49
2024/02/25 00:37:50;;;;;;;1.50;1.40;;;3.90;99.90;;;;;;4947321;28;20218;-53
2024/02/25 00:40:17;;;;;;;2.80;1.37;;;3.90;99.90;;;;;;4962255;28;20265;-52
2024/02/25 00:42:45;;;;;;;5.17;1.50;;;3.90;99.90;;;;;;4948313;28;20225;-54
2024/02/25 00:45:12;;;;;;;1.33;1.23;;;3.90;99.90;;;;;;4960633;28;20717;-53
2024/02/25 00:47:39;;;;;;;1.30;1.20;;;3.90;99.90;;;;;;4961690;28;20226;-48
2024/02/25 00:50:07;;;;;;;1.90;1.17;;;3.80;99.90;;;;;;4951388;28;20256;-56
2024/02/25 00:52:34;;;;;;;1.47;1.10;;;3.80;99.90;;;;;;4944374;28;20206;-47
2024/02/25 00:55:01;;;;;;;2.50;1.00;;;3.70;99.90;;;;;;4962308;28;20622;-51
2024/02/25 00:57:28;;;;;;;2.37;1.47;;;3.70;99.90;;;;;;4950403;28;20241;-48
2024/02/25 00:59:57;;;;;;;2.50;1.50;;;3.70;99.90;;;;;;4962992;28;20419;-49
2024/02/25 01:02:24;;;;;;;1.83;1.63;;;3.70;99.90;;;;;;4955929;28;20264;-50
2024/02/25 01:04:51;;;;;;;2.13;1.63;;;3.60;99.90;;;;;;4962704;28;20914;-50
2024/02/25 01:07:18;;;;;;;2.00;1.80;;;3.60;99.90;;;;;;4925404;28;20214;-53
2024/02/25 01:09:44;;;;;;;1.60;1.50;;;3.60;99.90;;;;;;4958468;28;20210;-49
2024/02/25 01:12:11;;;;;;;2.60;1.90;;;3.50;99.90;;;;;;4959871;28;20641;-52
2024/02/25 01:14:41;;;;;;;3.23;1.40;;;3.50;99.90;;;;;;4951492;28;20296;-47
2024/02/25 01:17:09;;;;;;;3.90;1.73;;;3.50;99.90;;;;;;4960205;28;20229;-54
2024/02/25 01:19:36;;;;;;;2.07;1.30;;;3.50;99.90;;;;;;4959544;28;20868;-51
2024/02/25 01:22:02;;;;;;;2.20;1.63;;;3.40;99.90;;;;;;4936604;28;20206;-49
2024/02/25 01:24:29;;;;;;;2.63;1.60;;;3.40;99.90;;;;;;4959027;28;20194;-46
2024/02/25 01:26:56;;;;;;;3.00;1.30;;;3.30;99.90;;;;;;4959759;28;20583;-48
2024/02/25 01:29:23;;;;;;;2.10;1.40;;;3.30;99.90;;;;;;4945270;28;20206;-50
2024/02/25 01:31:52;;;;;;;1.20;1.10;;;3.30;99.90;;;;;;4961318;28;20249;-49
2024/02/25 01:34:25;;;;;;;1.47;1.27;;;3.30;99.90;;;;;;4957470;28;20202;-51
2024/02/25 01:36:52;;;;;;;1.53;0.97;;;3.30;99.90;;;;;;4961178;28;20213;-46
2024/02/25 01:39:21;;;;;;;1.27;1.20;;;3.20;99.90;;;;;;4933067;28;20206;-48
2024/02/25 01:41:47;;;;;;;2.17;1.27;;;3.20;99.90;;;;;;4960016;28;20631;-52
2024/02/25 01:44:14;;;;;;;2.43;1.53;;;3.20;99.90;;;;;;4952198;28;20225;-52
2024/02/25 01:46:45;;;;;;;1.63;1.30;;;3.20;99.90;;;;;;4959108;28;20210;-48
2024/02/25 01:49:12;;;;;;;3.33;1.77;;;3.20;99.90;;;;;;4959408;28;20202;-50
2024/02/25 01:51:41;;;;;;;1.77;1.57;;;3.10;99.90;;;;;;4960320;28;20634;-51
2024/02/25 01:54:08;;;;;;;1.67;1.47;;;3.10;99.90;;;;;;4934431;28;20257;-52
2024/02/25 01:56:35;;;;;;;3.03;1.40;;;3.10;99.90;;;;;;4959742;28;20214;-50
2024/02/25 01:59:03;;;;;;;1.20;1.07;;;3.10;99.90;;;;;;4958202;28;20226;-52
2024/02/25 02:01:33;;;;;;;2.77;1.20;;;3.10;99.90;;;;;;4943045;28;20829;-53
2024/02/25 02:04:01;;;;;;;1.63;1.53;;;3.10;99.90;;;;;;4961228;28;20198;-53
2024/02/25 02:06:28;;;;;;;1.77;1.27;;;3.00;99.90;;;;;;4952041;28;20189;-50
2024/02/25 02:08:56;;;;;;;1.37;1.13;;;3.00;99.90;;;;;;4959394;28;20228;-49
2024/02/25 02:11:23;;;;;;;1.37;1.27;;;3.00;99.90;;;;;;4932650;28;20202;-47
2024/02/25 02:13:52;;;;;;;1.33;1.23;;;2.90;99.90;;;;;;4960875;28;20193;-49
2024/02/25 02:16:19;;;;;;;1.50;1.30;;;2.90;99.90;;;;;;4947894;28;21111;-49
2024/02/25 02:18:47;;;;;;;1.10;1.10;;;2.90;99.90;;;;;;4961616;28;20226;-49
2024/02/25 02:21:17;;;;;;;1.80;1.57;;;2.90;99.90;;;;;;4958103;28;20284;-52
2024/02/25 02:23:44;;;;;;;1.40;1.30;;;2.80;99.90;;;;;;4961555;28;20606;-52
2024/02/25 02:26:11;;;;;;;2.73;1.80;;;2.90;99.90;;;;;;4934110;28;20257;-51
2024/02/25 02:28:38;;;;;;;1.67;1.50;;;2.80;99.90;;;;;;4960330;28;20221;-47
2024/02/25 02:31:05;;;;;;;1.80;1.70;;;2.80;99.90;;;;;;4955755;28;20202;-52
2024/02/25 02:33:32;;;;;;;1.63;1.53;;;2.80;99.90;;;;;;4954400;28;20206;-45
2024/02/25 02:35:59;;;;;;;4.33;1.90;;;2.80;99.90;;;;;;4961434;28;20198;-52
2024/02/25 02:38:27;;;;;;;2.37;2.17;;;2.80;99.90;;;;;;4957628;28;20296;-45
2024/02/25 02:40:54;;;;;;;1.60;1.50;;;2.80;99.90;;;;;;4939026;28;20272;-49
2024/02/25 02:43:23;;;;;;;2.03;1.87;;;2.80;99.90;;;;;;4960110;28;20984;-46
2024/02/25 02:45:51;;;;;;;2.10;1.57;;;2.80;99.90;;;;;;4965602;28;20656;-47
2024/02/25 02:48:21;;;;;;;3.80;1.63;;;2.80;99.90;;;;;;4951644;28;20873;-44
2024/02/25 02:50:47;;;;;;;1.83;1.70;;;2.80;99.90;;;;;;4965384;28;20257;-52
2024/02/25 02:53:14;;;;;;;2.13;1.93;;;2.80;99.90;;;;;;4961682;28;20202;-53
2024/02/25 02:55:42;;;;;;;2.43;2.03;;;2.80;99.90;;;;;;4964679;28;20203;-49
2024/02/25 02:58:09;;;;;;;2.90;1.83;;;2.80;99.90;;;;;;4936865;28;20308;-54
2024/02/25 03:00:36;;;;;;;2.60;1.80;;;2.80;99.90;;;;;;4962442;28;20830;-52
2024/02/25 03:03:02;;;;;;;1.57;1.47;;;2.80;99.90;;;;;;4954529;28;20272;-54
2024/02/25 03:05:29;;;;;;;2.30;1.63;;;2.80;99.90;;;;;;4962200;28;20195;-49
2024/02/25 03:07:56;;;;;;;1.30;1.20;;;2.80;99.90;;;;;;4964530;28;20214;-52
2024/02/25 03:10:23;;;;;;;1.60;1.50;;;2.80;99.90;;;;;;4961000;28;20198;-50
2024/02/25 03:12:52;;;;;;;2.00;1.90;;;2.80;99.90;;;;;;4939444;28;20210;-52
2024/02/25 03:15:18;;;;;;;3.27;1.63;;;2.80;99.90;;;;;;4961188;28;20264;-52
2024/02/25 03:17:46;;;;;;;2.37;1.40;;;2.80;99.90;;;;;;4955329;28;20221;-53
2024/02/25 03:20:13;;;;;;;1.33;1.23;;;2.80;99.90;;;;;;4961895;28;20198;-55
2024/02/25 03:22:41;;;;;;;1.70;1.60;;;2.80;99.90;;;;;;4963677;28;20202;-53
2024/02/25 03:25:09;;;;;;;1.60;1.50;;;2.80;99.90;;;;;;4962923;28;20206;-54
2024/02/25 03:27:37;;;;;;;1.60;1.47;;;2.80;99.90;;;;;;4937393;28;20225;-53
2024/02/25 03:30:07;;;;;;;1.60;1.50;;;2.80;99.90;;;;;;4963390;28;20568;-54
2024/02/25 03:32:34;;;;;;;1.30;1.20;;;2.80;99.90;;;;;;4953262;28;20373;-52
2024/02/25 03:35:01;;;;;;;1.27;1.27;;;2.80;99.90;;;;;;4963822;28;20228;-54
2024/02/25 03:37:28;;;;;;;1.63;1.50;;;2.80;99.90;;;;;;4961235;28;20252;-51
2024/02/25 03:39:55;;;;;;;4.60;1.80;;;2.80;99.90;;;;;;4964379;28;20273;-51
2024/02/25 03:42:21;;;;;;;1.60;1.50;;;2.80;99.90;;;;;;4957900;28;20264;-53
2024/02/25 03:44:49;;;;;;;1.43;1.23;;;2.80;99.90;;;;;;4937272;28;20238;-53
2024/02/25 03:47:17;;;;;;;2.03;1.40;;;2.80;99.90;;;;;;4960463;28;20260;-56
2024/02/25 03:49:44;;;;;;;1.17;1.13;;;2.80;99.90;;;;;;4953598;28;20210;-54
2024/02/25 03:52:11;;;;;;;1.53;1.30;;;2.80;99.90;;;;;;4961847;28;20202;-57
2024/02/25 03:54:37;;;;;;;2.40;1.20;;;2.80;99.90;;;;;;4962082;28;20904;-49
2024/02/25 03:57:05;;;;;;;2.67;1.33;;;2.80;99.90;;;;;;4962139;28;20218;-56
2024/02/25 03:59:32;;;;;;;0.80;0.80;;;2.80;99.90;;;;;;4934801;28;20218;-51
2024/02/25 04:02:00;;;;;;;1.30;1.10;;;2.80;99.90;;;;;;4962518;28;20209;-54
2024/02/25 04:04:28;;;;;;;1.43;1.03;;;2.80;99.90;;;;;;4951023;28;20227;-46
2024/02/25 04:06:55;;;;;;;1.53;1.33;;;2.80;99.90;;;;;;4962496;28;20660;-47
2024/02/25 04:09:22;;;;;;;3.73;1.30;;;2.80;99.90;;;;;;4959866;28;20249;-50
2024/02/25 04:11:49;;;;;;;1.30;1.07;;;2.90;99.90;;;;;;4963515;28;20680;-50
2024/02/25 04:14:16;;;;;;;1.13;0.90;;;2.80;99.90;;;;;;4936482;28;20198;-52
2024/02/25 04:16:43;;;;;;;1.13;1.03;;;2.80;99.90;;;;;;4951414;28;20236;-50
2024/02/25 04:19:10;;;;;;;2.93;1.00;;;2.80;99.90;;;;;;4953805;28;20211;-49
2024/02/25 04:21:39;;;;;;;1.37;0.87;;;2.80;99.90;;;;;;4962370;28;20249;-53
2024/02/25 04:24:06;;;;;;;2.23;1.00;;;2.80;99.90;;;;;;4961638;28;20190;-50
2024/02/25 04:26:33;;;;;;;1.03;1.00;;;2.80;99.90;;;;;;4951840;28;20213;-52
2024/02/25 04:29:00;;;;;;;2.83;1.30;;;2.80;99.90;;;;;;4961225;28;20277;-51
2024/02/25 04:31:27;;;;;;;1.60;0.93;;;2.80;99.90;;;;;;4936912;28;20210;-53
2024/02/25 04:33:53;;;;;;;1.00;1.00;;;2.80;99.90;;;;;;4960387;28;20182;-52
2024/02/25 04:36:20;;;;;;;1.80;1.00;;;2.90;99.90;;;;;;4954857;28;20246;-51
2024/02/25 04:38:48;;;;;;;2.13;0.90;;;2.90;99.90;;;;;;4959623;28;20284;-52
2024/02/25 04:41:15;;;;;;;2.47;0.73;;;2.90;99.90;;;;;;4963336;28;20202;-51
2024/02/25 04:43:42;;;;;;;2.07;0.80;;;2.90;99.90;;;;;;4959526;28;20280;-52
2024/02/25 04:46:09;;;;;;;1.00;0.80;;;3.00;99.90;;;;;;4936847;28;20266;-47
2024/02/25 04:48:38;;;;;;;1.00;0.93;;;2.90;99.90;;;;;;4961254;28;20851;-53
2024/02/25 04:51:05;;;;;;;3.73;1.10;;;3.00;99.90;;;;;;4951411;28;20220;-49
2024/02/25 04:53:32;;;;;;;1.37;0.73;;;3.00;99.90;;;;;;4962418;28;20198;-52
2024/02/25 04:56:01;;;;;;;0.80;0.80;;;3.10;99.90;;;;;;4960744;28;20303;-51
2024/02/25 04:58:28;;;;;;;2.40;0.70;;;3.10;99.90;;;;;;4962481;28;20217;-50
2024/02/25 05:00:54;;;;;;;3.30;0.90;;;3.10;99.90;;;;;;4934580;28;20213;-47
2024/02/25 05:03:21;;;;;;;1.33;0.70;;;3.20;99.90;;;;;;4952628;28;20194;-48
2024/02/25 05:05:48;;;;;;;1.00;0.90;;;3.20;99.90;;;;;;4949864;28;20206;-47
2024/02/25 05:08:15;;;;;;;3.23;0.90;;;3.20;99.90;;;;;;4962956;28;20213;-53
2024/02/25 05:10:42;;;;;;;0.70;0.70;;;3.20;99.90;;;;;;4959591;28;20567;-54
2024/02/25 05:13:10;;;;;;;1.00;0.90;;;3.20;99.90;;;;;;4962173;28;20209;-50
2024/02/25 05:15:38;;;;;;;3.13;1.17;;;3.20;99.90;;;;;;4960352;28;20247;-54
2024/02/25 05:18:05;;;;;;;1.70;1.00;;;3.20;99.90;;;;;;4934941;28;20228;-51
2024/02/25 05:20:32;;;;;;;2.13;0.90;;;3.30;99.90;;;;;;4958492;28;20186;-55
2024/02/25 05:22:59;;;;;;;3.43;1.20;;;3.30;99.90;;;;;;4954861;28;20206;-50
2024/02/25 05:25:26;;;;;;;4.33;1.00;;;3.30;99.90;;;;;;4961095;28;20205;-53
2024/02/25 05:27:53;;;;;;;1.97;0.90;;;3.30;99.90;;;;;;4958755;28;20419;-53
2024/02/25 05:30:21;;;;;;;2.33;0.93;;;3.30;99.90;;;;;;4961157;28;20221;-50
2024/02/25 05:32:47;;;;;;;0.97;0.70;;;3.40;99.90;;;;;;4932757;28;20933;-48
2024/02/25 05:35:15;;;;;;;1.73;1.00;;;3.40;99.90;;;;;;4956332;28;20198;-52
2024/02/25 05:37:42;;;;;;;1.17;0.90;;;3.40;99.90;;;;;;4949982;28;20250;-53
2024/02/25 05:40:11;;;;;;;1.70;1.07;;;3.40;99.90;;;;;;4962067;28;20202;-49
2024/02/25 05:42:38;;;;;;;1.17;0.70;;;3.50;99.90;;;;;;4959804;28;20214;-53
2024/02/25 05:45:06;;;;;;;1.60;0.97;;;3.50;99.90;;;;;;4961052;28;20679;-50
2024/02/25 05:47:34;;;;;;;3.40;0.90;;;3.50;99.90;;;;;;4950762;28;20214;-55
2024/02/25 05:50:01;;;;;;;1.03;0.87;;;3.50;99.90;;;;;;4948932;28;20323;-52
2024/02/25 05:52:28;;;;;;;2.00;1.00;;;3.50;99.90;;;;;;4952645;28;20194;-54
2024/02/25 05:54:56;;;;;;;2.07;0.93;;;3.40;99.90;;;;;;4959067;28;20198;-50
2024/02/25 05:57:23;;;;;;;1.13;0.83;;;3.40;99.90;;;;;;4959385;28;20229;-49
2024/02/25 05:59:49;;;;;;;2.00;0.90;;;3.40;99.90;;;;;;4958408;28;20186;-51
2024/02/25 06:02:17;;;;;;;1.03;0.87;;;3.40;99.90;;;;;;4951101;28;20214;-52
2024/02/25 06:04:46;;;;;;;2.63;0.90;;;3.40;99.90;;;;;;4930090;28;20209;-51
2024/02/25 06:07:13;;;;;;;2.27;1.00;;;3.40;99.90;;;;;;4953386;28;20222;-54
2024/02/25 06:09:40;;;;;;;1.57;1.10;;;3.40;99.90;;;;;;4952702;28;20202;-48
2024/02/25 06:12:07;;;;;;;3.33;1.00;;;3.50;99.90;;;;;;4961654;28;20202;-50
2024/02/25 06:14:34;;;;;;;1.63;0.87;;;3.50;99.90;;;;;;4959561;28;20186;-47
2024/02/25 06:17:00;;;;;;;1.80;0.80;;;3.50;99.90;;;;;;4965584;28;20257;-49
2024/02/25 06:19:27;;;;;;;1.10;1.00;;;3.50;99.90;;;;;;4938489;28;20257;-53
2024/02/25 06:21:55;;;;;;;2.23;0.93;;;3.50;99.90;;;;;;4957292;28;20279;-48
2024/02/25 06:24:22;;;;;;;1.10;1.00;;;3.50;99.90;;;;;;4954357;28;20202;-54
2024/02/25 06:26:49;;;;;;;1.43;0.93;;;3.60;99.90;;;;;;4965217;28;20206;-52
2024/02/25 06:29:16;;;;;;;2.67;0.90;;;3.60;99.90;;;;;;4964527;28;20230;-56
2024/02/25 06:31:44;;;;;;;1.17;0.60;;;3.60;99.90;;;;;;4960310;28;20225;-53
2024/02/25 06:34:12;;;;;;;0.63;0.63;;;3.60;99.90;;;;;;4961971;28;20665;-54
2024/02/25 06:36:39;;;;;;;1.90;0.60;;;3.60;99.90;;;;;;4936793;28;20213;-49
2024/02/25 06:39:09;;;;;;;0.97;0.70;;;3.60;99.90;;;;;;4966597;28;20270;-48
2024/02/25 06:41:36;;;;;;;1.90;1.00;;;3.60;99.90;;;;;;4953337;28;20198;-53
2024/02/25 06:44:03;;;;;;;0.77;0.77;;;3.70;99.90;;;;;;4965669;28;20342;-52
2024/02/25 06:46:30;;;;;;;1.03;0.90;;;3.70;99.90;;;;;;4961746;28;20277;-52
2024/02/25 06:48:56;;;;;;;1.33;0.90;;;3.70;99.90;;;;;;4955421;28;20222;-49
2024/02/25 06:51:26;;;;;;;1.50;0.83;;;3.70;99.90;;;;;;4939559;28;20206;-49
2024/02/25 06:53:53;;;;;;;1.30;0.97;;;3.70;99.90;;;;;;4945243;28;20213;-51
2024/02/25 06:56:21;;;;;;;1.13;0.90;;;3.70;99.90;;;;;;4954759;28;20209;-52
2024/02/25 06:58:48;;;;;;;1.20;0.90;;;3.70;99.90;;;;;;4953229;28;20218;-49
2024/02/25 07:01:16;;;;;;;2.27;0.73;;;3.80;99.90;;;;;;4963350;28;20723;-47
2024/02/25 07:03:44;;;;;;;1.60;1.00;;;3.80;99.90;;;;;;4941560;28;20293;-45
2024/02/25 07:06:11;;;;;;;1.60;0.87;;;3.80;99.90;;;;;;4938911;28;20218;-46
2024/02/25 07:08:38;;;;;;;1.27;0.90;;;3.80;99.90;;;;;;4945435;28;20249;-49
2024/02/25 07:11:14;;;;;;;0.80;0.80;;;3.80;99.90;;;;;;4954011;28;20280;-49
2024/02/25 07:13:42;;;;;;;1.23;0.90;;;3.90;99.90;;;;;;4949774;28;20741;-48
2024/02/25 07:16:09;;;;;;;1.53;0.70;;;3.90;99.90;;;;;;4962568;28;20684;-49
2024/02/25 07:18:36;;;;;;;1.63;0.90;;;4.00;99.90;;;;;;4958666;28;20226;-47
2024/02/25 07:21:03;;;;;;;1.63;0.90;;;4.00;99.90;;;;;;4953474;28;20244;-50
2024/02/25 07:23:30;;;;;;;3.93;0.80;;;4.00;99.90;;;;;;4918459;28;20221;-49
2024/02/25 07:25:57;;;;;;;1.00;0.80;;;4.10;99.90;;;;;;4943915;28;20395;-53
2024/02/25 07:28:24;;;;;;;0.60;0.60;;;4.10;99.90;;;;;;4955680;28;20276;-50
2024/02/25 07:30:52;;;;;;;1.33;0.70;;;4.20;99.90;;;;;;4948023;28;20289;-52
2024/02/25 07:33:19;;;;;;;2.50;1.10;;;4.20;99.90;;;;;;4950904;28;20206;-52
2024/02/25 07:35:46;;;;;;;0.80;0.80;;;4.20;99.90;;;;;;4963254;28;20206;-49
2024/02/25 07:38:13;;;;;;;1.33;1.10;;;4.30;99.90;;;;;;4937513;28;20906;-52
2024/02/25 07:40:41;;;;;;;0.87;0.77;;;4.30;99.90;;;;;;4939920;28;20210;-50
2024/02/25 07:43:08;;;;;;;2.10;0.90;;;4.30;99.90;;;;;;4945458;28;20254;-52
2024/02/25 07:45:34;;;;;;;1.13;0.97;;;4.40;99.90;;;;;;4957826;28;20628;-48
2024/02/25 07:48:03;;;;;;;1.00;0.90;;;4.40;99.90;;;;;;4961949;28;20230;-51
2024/02/25 07:50:30;;;;;;;0.97;0.97;;;4.40;99.90;;;;;;4962721;28;20215;-49
2024/02/25 07:52:57;;;;;;;1.57;0.80;;;4.50;99.90;;;;;;4951644;28;20213;-51
2024/02/25 07:55:25;;;;;;;1.77;1.30;;;4.60;99.90;;;;;;4934094;28;20645;-51
2024/02/25 07:57:51;;;;;;;2.13;0.70;;;4.60;99.90;;;;;;4947421;28;20369;-50
2024/02/25 08:00:19;;;;;;;2.13;1.20;;;4.60;99.90;;;;;;4944892;28;20785;-48
2024/02/25 08:02:46;;;;;;;0.97;0.87;;;4.70;99.90;;;;;;4963999;28;20347;-52
2024/02/25 08:05:14;;;;;;;1.33;0.80;;;4.70;99.90;;;;;;4949110;28;20206;-50
2024/02/25 08:07:44;;;;;;;0.93;0.93;;;4.80;99.90;;;;;;4961004;28;20284;-51
2024/02/25 08:10:11;;;;;;;1.80;0.90;;;4.80;99.90;;;;;;4931737;28;20209;-48
2024/02/25 08:12:39;;;;;;;1.03;0.93;;;4.80;99.90;;;;;;4935559;28;20285;-54
2024/02/25 08:15:07;;;;;;;1.17;0.70;;;4.80;99.90;;;;;;4962968;28;20285;-46
2024/02/25 08:17:36;;;;;;;2.60;0.73;;;4.90;99.90;;;;;;4961386;28;20274;-51
2024/02/25 08:20:03;;;;;;;0.93;0.83;;;4.80;99.90;;;;;;4962943;28;20613;-48
2024/02/25 08:22:32;;;;;;;1.53;1.00;;;4.80;99.90;;;;;;4960981;28;20202;-49
2024/02/25 08:24:59;;;;;;;0.87;0.70;;;4.90;99.90;;;;;;4937328;28;25537;-49
2024/02/25 08:27:28;;;;;;;1.23;0.90;;;4.90;99.90;;;;;;4951863;28;20228;-53
2024/02/25 08:29:55;;;;;;;2.30;0.97;;;4.90;99.90;;;;;;4950135;28;20194;-51
2024/02/25 08:32:23;;;;;;;0.77;0.77;;;5.00;99.90;;;;;;4961589;28;20194;-52
2024/02/25 08:34:53;;;;;;;0.93;0.80;;;5.00;99.90;;;;;;4960446;28;20196;-46
2024/02/25 08:37:21;;;;;;;1.10;1.00;;;5.00;99.90;;;;;;4963211;28;20591;-47
2024/02/25 08:39:49;;;;;;;2.53;0.83;;;5.10;99.90;;;;;;4934833;28;21394;-46
2024/02/25 08:42:16;;;;;;;1.90;0.93;;;5.00;99.90;;;;;;4954681;28;20209;-46
2024/02/25 08:44:43;;;;;;;2.37;1.13;;;5.00;99.90;;;;;;4943530;28;20989;-50
2024/02/25 08:47:10;;;;;;;3.47;1.10;;;5.00;99.90;;;;;;4963406;28;20222;-47
2024/02/25 08:49:37;;;;;;;1.70;1.50;;;5.10;99.90;;;;;;4962315;28;20205;-48
2024/02/25 08:52:04;;;;;;;1.97;1.00;;;5.10;99.90;;;;;;4962413;28;20202;-47
2024/02/25 08:54:31;;;;;;;1.87;0.83;;;5.10;99.90;;;;;;4961477;28;20205;-53
2024/02/25 08:56:59;;;;;;;0.93;0.93;;;5.20;99.90;;;;;;4935701;28;20217;-48
2024/02/25 08:59:26;;;;;;;1.70;1.07;;;5.20;99.90;;;;;;4946800;28;20229;-51
2024/02/25 09:01:53;;;;;;;2.73;0.90;;;5.20;99.90;;;;;;4958989;28;20210;-52
2024/02/25 09:04:20;;;;;;;1.40;0.97;;;5.20;99.90;;;;;;4959727;28;20198;-54
2024/02/25 09:06:47;;;;;;;1.87;1.13;;;5.30;99.90;;;;;;4955138;28;20204;-46
2024/02/25 09:09:14;;;;;;;3.50;1.20;;;5.30;99.90;;;;;;4962892;28;20202;-51
2024/02/25 09:11:41;;;;;;;1.13;0.90;;;5.30;99.90;;;;;;4929252;28;20218;-51
2024/02/25 09:14:09;;;;;;;1.70;1.00;;;5.30;99.90;;;;;;4945468;28;20197;-46
2024/02/25 09:16:38;;;;;;;1.60;1.23;;;5.40;99.90;;;;;;4958003;28;20542;-51
2024/02/25 09:19:04;;;;;;;1.20;0.90;;;5.40;99.90;;;;;;4953730;28;20226;-47
2024/02/25 09:21:31;;;;;;;3.10;0.90;;;5.40;99.90;;;;;;4954888;28;20194;-47
2024/02/25 09:23:59;;;;;;;0.77;0.77;;;5.50;99.90;;;;;;4959472;28;20285;-49
2024/02/25 09:26:26;;;;;;;3.03;0.87;;;5.50;99.90;;;;;;4962886;28;20214;-47
2024/02/25 09:28:52;;;;;;;1.33;0.70;;;5.60;99.90;;;;;;4920209;28;20308;-49
2024/02/25 09:31:21;;;;;;;0.80;0.80;;;5.70;99.90;;;;;;4943997;28;20329;-52
2024/02/25 09:33:49;;;;;;;1.20;1.10;;;5.80;99.90;;;;;;4957183;28;20614;-46
2024/02/25 09:36:22;;;;;;;2.20;1.17;;;5.80;99.90;;;;;;4955219;28;20214;-53
2024/02/25 09:38:49;;;;;;;2.93;0.70;;;5.90;99.90;;;;;;4959030;28;20269;-46
2024/02/25 09:41:24;;;;;;;1.33;0.80;;;6.00;99.90;;;;;;4958970;28;20210;-50
2024/02/25 09:43:52;;;;;;;0.90;0.80;;;6.00;99.90;;;;;;4934640;28;20233;-48
2024/02/25 09:46:22;;;;;;;1.50;1.10;;;6.10;99.90;;;;;;4946399;28;20206;-51
2024/02/25 09:48:51;;;;;;;1.27;0.70;;;6.20;99.90;;;;;;4954144;28;20229;-46
2024/02/25 09:51:19;;;;;;;1.57;0.57;;;6.20;99.90;;;;;;4953706;28;20201;-50
2024/02/25 09:53:49;;;;;;;0.77;0.73;;;6.30;99.90;;;;;;4960799;28;20205;-46
2024/02/25 09:56:15;;;;;;;3.43;1.10;;;6.40;99.90;;;;;;4957627;28;20206;-47
2024/02/25 09:58:42;;;;;;;1.03;0.67;;;6.50;99.90;;;;;;4934399;28;20232;-51
2024/02/25 10:01:09;;;;;;;2.40;0.83;;;6.60;99.90;;;;;;4951155;28;20211;-46
2024/02/25 10:03:39;;;;;;;1.40;0.67;;;6.70;99.90;;;;;;4951430;28;20783;-51
2024/02/25 10:06:06;;;;;;;1.63;0.93;;;6.70;99.90;;;;;;4949672;28;20210;-49
2024/02/25 10:08:45;;;;;;;1.73;0.73;;;6.80;99.90;;;;;;4952445;28;20308;-51
2024/02/25 10:11:12;;;;;;;1.23;0.87;;;6.90;99.90;;;;;;4962016;28;20256;-50
2024/02/25 10:13:41;;;;;;;1.60;0.80;;;6.90;99.90;;;;;;4936660;28;20261;-50
2024/02/25 10:16:15;;;;;;;1.30;0.70;;;7.00;99.90;;;;;;4953113;28;20311;-46
2024/02/25 10:18:44;;;;;;;0.80;0.67;;;7.10;99.90;;;;;;4947065;28;20783;-50
2024/02/25 10:21:11;;;;;;;1.03;1.00;;;7.10;99.90;;;;;;4961432;28;20225;-49
2024/02/25 10:23:38;;;;;;;0.97;0.70;;;7.20;99.90;;;;;;4951204;28;20210;-53
2024/02/25 10:26:13;;;;;;;1.27;0.70;;;7.30;99.90;;;;;;4960838;28;20194;-48
2024/02/25 10:28:41;;;;;;;1.17;0.90;;;7.40;99.90;;;;;;4941962;28;20224;-51
2024/02/25 10:31:10;;;;;;;0.83;0.83;;;7.50;99.90;;;;;;4929454;28;20390;-49
2024/02/25 10:33:38;;;;;;;1.10;0.70;;;7.50;99.90;;;;;;4953060;28;20214;-46
2024/02/25 10:36:12;;;;;;;2.20;1.00;;;7.70;99.90;;;;;;4944682;28;20225;-52
2024/02/25 10:38:40;;;;;;;2.67;0.80;;;7.80;99.90;;;;;;4940518;28;20225;-47
2024/02/25 10:41:08;;;;;;;0.60;0.60;;;7.80;99.90;;;;;;4957956;28;20259;-49
2024/02/25 10:43:36;;;;;;;0.90;0.80;;;7.90;99.90;;;;;;4959965;28;20289;-47
2024/02/25 10:46:14;;;;;;;1.10;0.90;;;8.00;99.90;;;;;;4934417;28;20277;-54
2024/02/25 10:48:43;;;;;;;0.73;0.70;;;8.10;99.90;;;;;;4950297;28;20688;-45
2024/02/25 10:51:12;;;;;;;0.80;0.80;;;8.10;99.90;;;;;;4944293;28;20207;-46
2024/02/25 10:53:41;;;;;;;1.70;0.73;;;8.30;99.90;;;;;;4953159;28;20214;-49
2024/02/25 10:56:14;;;;;;;0.90;0.80;;;8.30;99.90;;;;;;4958384;28;20198;-48
2024/02/25 10:58:41;;;;;;;0.90;0.80;;;8.30;99.90;;;;;;4961647;28;20222;-47
2024/02/25 11:01:09;;;;;;;0.93;0.60;;;8.20;99.90;;;;;;4934699;28;20202;-46
2024/02/25 11:03:37;;;;;;;0.90;0.90;;;8.20;99.90;;;;;;4950941;28;20572;-46
2024/02/25 11:06:07;;;;;;;0.60;0.60;;;8.20;99.90;;;;;;4963472;28;20230;-51
2024/02/25 11:08:36;;;;;;;1.63;0.50;;;8.20;99.90;;;;;;4957857;28;20236;-49
2024/02/25 11:11:10;;;;;;;1.20;0.73;;;8.20;99.90;;;;;;4955656;28;20205;-49
2024/02/25 11:13:42;;;;;;;2.20;0.80;;;8.10;99.90;;;;;;4967246;28;20302;-46
2024/02/25 11:16:09;;;;;;;1.20;1.10;;;8.10;99.90;;;;;;4935424;28;21153;-49
2024/02/25 11:18:40;;;;;;;0.70;0.70;;;8.10;99.90;;;;;;4956744;28;20296;-46
2024/02/25 11:21:09;;;;;;;1.27;0.57;;;8.10;99.90;;;;;;4961278;28;20297;-50
2024/02/25 11:23:45;;;;;;;1.10;0.90;;;8.10;99.90;;;;;;4959390;28;20229;-49
2024/02/25 11:26:36;;;;;;;1.30;0.83;;;8.10;99.90;;;;;;4951606;28;20213;-47
2024/02/25 11:29:20;;;;;;;0.50;0.50;;;8.10;99.90;;;;;;4952454;28;20225;-46
2024/02/25 11:31:48;;;;;;;1.13;1.03;;;8.20;99.90;;;;;;4937438;28;20214;-46
2024/02/25 11:34:17;;;;;;;1.87;0.83;;;8.30;99.90;;;;;;4955419;28;20205;-47
2024/02/25 11:36:44;;;;;;;1.10;1.00;;;8.40;99.90;;;;;;4959887;28;20206;-50
2024/02/25 11:39:13;;;;;;;2.03;0.80;;;8.40;99.90;;;;;;4951957;28;20273;-53
2024/02/25 11:41:41;;;;;;;2.73;1.00;;;8.50;99.90;;;;;;4953776;28;20194;-48
2024/02/25 11:44:08;;;;;;;0.90;0.77;;;8.50;99.90;;;;;;4964703;28;20202;-51
2024/02/25 11:46:35;;;;;;;0.90;0.90;;;8.50;99.90;;;;;;4960156;28;20389;-48
2024/02/25 11:49:03;;;;;;;1.43;0.97;;;8.60;99.90;;;;;;4940518;28;20221;-48
2024/02/25 11:51:31;;;;;;;0.80;0.80;;;8.60;99.90;;;;;;4952526;28;20269;-46
2024/02/25 11:53:58;;;;;;;1.40;0.80;;;8.50;99.90;;;;;;4958540;28;20218;-49
2024/02/25 11:56:27;;;;;;;0.90;0.90;;;8.40;99.90;;;;;;4944878;28;20194;-53
2024/02/25 11:58:54;;;;;;;0.90;0.90;;;8.30;99.90;;;;;;4959388;28;20639;-49
2024/02/25 12:01:21;;;;;;;0.63;0.63;;;8.20;99.90;;;;;;4954343;28;20615;-50
2024/02/25 12:03:48;;;;;;;2.17;1.00;;;8.10;99.90;;;;;;4938258;28;20947;-49
2024/02/25 12:06:15;;;;;;;0.87;0.80;;;7.90;99.90;;;;;;4953729;28;20206;-53
2024/02/25 12:08:47;;;;;;;0.83;0.70;;;7.80;99.90;;;;;;4962237;28;20276;-50
2024/02/25 12:11:14;;;;;;;0.77;0.53;;;7.90;99.90;;;;;;4944931;28;20216;-53
2024/02/25 12:13:44;;;;;;;1.50;0.80;;;7.90;99.90;;;;;;4957265;28;20931;-49
2024/02/25 12:16:11;;;;;;;1.90;0.97;;;7.90;99.90;;;;;;4954252;28;20209;-53
2024/02/25 12:18:38;;;;;;;1.53;0.77;;;7.90;99.90;;;;;;4933406;28;25838;-46
2024/02/25 12:21:06;;;;;;;0.93;0.77;;;8.00;99.90;;;;;;4957090;28;20242;-50
2024/02/25 12:23:32;;;;;;;0.80;0.70;;;8.10;99.90;;;;;;4960036;28;20240;-48
2024/02/25 12:26:04;;;;;;;1.83;0.77;;;8.10;99.90;;;;;;4957237;28;20210;-46
2024/02/25 12:28:37;;;;;;;1.10;0.80;;;8.00;99.90;;;;;;4951825;28;20877;-47
2024/02/25 12:31:07;;;;;;;0.90;0.70;;;8.00;99.90;;;;;;4956138;28;20697;-48
2024/02/25 12:33:34;;;;;;;0.83;0.80;;;8.00;99.90;;;;;;4960087;28;20194;-50
2024/02/25 12:36:04;;;;;;;1.60;0.90;;;8.00;99.90;;;;;;4929482;28;20700;-50
2024/02/25 12:38:31;;;;;;;0.83;0.83;;;8.10;99.90;;;;;;4958025;28;20290;-49
2024/02/25 12:41:01;;;;;;;1.30;1.00;;;8.10;99.90;;;;;;4962622;28;20664;-49
2024/02/25 12:43:28;;;;;;;1.03;1.03;;;8.10;99.90;;;;;;4950574;28;20377;-47
2024/02/25 12:45:55;;;;;;;1.07;0.90;;;8.10;99.90;;;;;;4963016;28;20202;-47
2024/02/25 12:48:24;;;;;;;1.43;0.90;;;8.00;99.90;;;;;;4954404;28;20229;-50
2024/02/25 12:50:50;;;;;;;4.13;1.50;;;8.10;99.90;;;;;;4924877;28;20348;-53
2024/02/25 12:53:18;;;;;;;2.77;1.10;;;8.10;99.90;;;;;;4949589;28;20214;-47
2024/02/25 12:55:45;;;;;;;0.80;0.80;;;8.10;99.90;;;;;;4958311;28;20707;-46
2024/02/25 12:58:12;;;;;;;3.67;1.07;;;8.20;99.90;;;;;;4946171;28;20225;-45
2024/02/25 13:00:39;;;;;;;0.83;0.80;;;8.40;99.90;;;;;;4964078;28;20217;-48